sensor_id;sensor_type;location;lat;lon;timestamp;P1;durP1;ratioP1;P2;durP2;ratioP2
64375;SDS011;50700;55.416;12.952;2023-05-16T00:01:42;9.40;;;5.90;;
64375;SDS011;50700;55.416;12.952;2023-05-16T00:04:09;8.88;;;5.40;;
64375;SDS011;50700;55.416;12.952;2023-05-16T00:06:35;6.68;;;5.68;;
64375;SDS011;50700;55.416;12.952;2023-05-16T00:09:01;7.88;;;5.55;;
64375;SDS011;50700;55.416;12.952;2023-05-16T00:11:28;6.80;;;5.82;;
64375;SDS011;50700;55.416;12.952;2023-05-16T00:13:54;6.93;;;5.40;;
64375;SDS011;50700;55.416;12.952;2023-05-16T00:16:21;7.10;;;5.70;;
64375;SDS011;50700;55.416;12.952;2023-05-16T00:18:50;8.35;;;5.78;;
64375;SDS011;50700;55.416;12.952;2023-05-16T00:21:16;8.70;;;5.40;;
64375;SDS011;50700;55.416;12.952;2023-05-16T00:23:43;6.25;;;5.38;;
64375;SDS011;50700;55.416;12.952;2023-05-16T00:26:09;6.57;;;5.88;;
64375;SDS011;50700;55.416;12.952;2023-05-16T00:28:35;6.93;;;5.38;;
64375;SDS011;50700;55.416;12.952;2023-05-16T00:31:01;8.80;;;5.57;;
64375;SDS011;50700;55.416;12.952;2023-05-16T00:33:28;8.60;;;5.95;;
64375;SDS011;50700;55.416;12.952;2023-05-16T00:35:54;12.38;;;5.75;;
64375;SDS011;50700;55.416;12.952;2023-05-16T00:38:20;6.63;;;5.55;;
64375;SDS011;50700;55.416;12.952;2023-05-16T00:40:46;8.38;;;6.32;;
64375;SDS011;50700;55.416;12.952;2023-05-16T00:43:12;7.50;;;5.53;;
64375;SDS011;50700;55.416;12.952;2023-05-16T00:45:39;9.60;;;6.28;;
64375;SDS011;50700;55.416;12.952;2023-05-16T00:48:05;8.02;;;5.85;;
64375;SDS011;50700;55.416;12.952;2023-05-16T00:50:32;7.82;;;5.22;;
64375;SDS011;50700;55.416;12.952;2023-05-16T00:52:58;6.32;;;5.72;;
64375;SDS011;50700;55.416;12.952;2023-05-16T00:55:24;8.75;;;6.20;;
64375;SDS011;50700;55.416;12.952;2023-05-16T00:57:51;6.95;;;5.53;;
64375;SDS011;50700;55.416;12.952;2023-05-16T01:00:17;8.57;;;5.68;;
64375;SDS011;50700;55.416;12.952;2023-05-16T01:02:44;8.05;;;6.55;;
64375;SDS011;50700;55.416;12.952;2023-05-16T01:05:10;7.43;;;6.13;;
64375;SDS011;50700;55.416;12.952;2023-05-16T01:07:37;9.18;;;6.13;;
64375;SDS011;50700;55.416;12.952;2023-05-16T01:10:03;10.52;;;6.10;;
64375;SDS011;50700;55.416;12.952;2023-05-16T01:12:35;7.05;;;5.65;;
64375;SDS011;50700;55.416;12.952;2023-05-16T01:17:41;11.68;;;6.47;;
64375;SDS011;50700;55.416;12.952;2023-05-16T01:20:48;6.33;;;5.37;;
64375;SDS011;50700;55.416;12.952;2023-05-16T01:27:58;7.57;;;5.75;;
64375;SDS011;50700;55.416;12.952;2023-05-16T01:30:30;7.13;;;5.82;;
64375;SDS011;50700;55.416;12.952;2023-05-16T01:32:57;10.88;;;6.80;;
64375;SDS011;50700;55.416;12.952;2023-05-16T01:35:23;8.52;;;5.40;;
64375;SDS011;50700;55.416;12.952;2023-05-16T01:41:03;7.43;;;5.68;;
64375;SDS011;50700;55.416;12.952;2023-05-16T01:43:04;8.43;;;6.22;;
64375;SDS011;50700;55.416;12.952;2023-05-16T01:45:33;9.80;;;6.38;;
64375;SDS011;50700;55.416;12.952;2023-05-16T01:48:04;11.43;;;7.75;;
64375;SDS011;50700;55.416;12.952;2023-05-16T01:50:33;9.85;;;8.60;;
64375;SDS011;50700;55.416;12.952;2023-05-16T01:53:11;13.63;;;9.85;;
64375;SDS011;50700;55.416;12.952;2023-05-16T01:55:44;20.25;;;11.35;;
64375;SDS011;50700;55.416;12.952;2023-05-16T01:58:11;17.13;;;10.48;;
64375;SDS011;50700;55.416;12.952;2023-05-16T02:00:38;14.95;;;10.60;;
64375;SDS011;50700;55.416;12.952;2023-05-16T02:03:05;19.05;;;10.68;;
64375;SDS011;50700;55.416;12.952;2023-05-16T02:05:31;13.13;;;10.05;;
64375;SDS011;50700;55.416;12.952;2023-05-16T02:07:58;14.75;;;10.00;;
64375;SDS011;50700;55.416;12.952;2023-05-16T02:10:25;17.73;;;11.05;;
64375;SDS011;50700;55.416;12.952;2023-05-16T02:12:51;19.92;;;10.77;;
64375;SDS011;50700;55.416;12.952;2023-05-16T02:15:18;20.65;;;11.50;;
64375;SDS011;50700;55.416;12.952;2023-05-16T02:17:45;19.58;;;11.23;;
64375;SDS011;50700;55.416;12.952;2023-05-16T02:20:11;24.50;;;13.00;;
64375;SDS011;50700;55.416;12.952;2023-05-16T02:22:38;20.42;;;13.20;;
64375;SDS011;50700;55.416;12.952;2023-05-16T02:25:05;23.83;;;12.25;;
64375;SDS011;50700;55.416;12.952;2023-05-16T02:27:31;28.33;;;15.10;;
64375;SDS011;50700;55.416;12.952;2023-05-16T02:29:57;28.58;;;15.23;;
64375;SDS011;50700;55.416;12.952;2023-05-16T02:32:24;26.30;;;14.05;;
64375;SDS011;50700;55.416;12.952;2023-05-16T02:34:50;30.30;;;14.57;;
64375;SDS011;50700;55.416;12.952;2023-05-16T02:37:17;27.83;;;14.60;;
64375;SDS011;50700;55.416;12.952;2023-05-16T02:39:43;27.48;;;14.25;;
64375;SDS011;50700;55.416;12.952;2023-05-16T02:42:10;22.73;;;13.00;;
64375;SDS011;50700;55.416;12.952;2023-05-16T02:44:36;25.30;;;12.90;;
64375;SDS011;50700;55.416;12.952;2023-05-16T02:47:02;30.63;;;12.55;;
64375;SDS011;50700;55.416;12.952;2023-05-16T02:49:28;23.73;;;11.32;;
64375;SDS011;50700;55.416;12.952;2023-05-16T02:51:54;22.05;;;11.05;;
64375;SDS011;50700;55.416;12.952;2023-05-16T02:54:21;27.35;;;12.27;;
64375;SDS011;50700;55.416;12.952;2023-05-16T02:56:47;21.42;;;11.70;;
64375;SDS011;50700;55.416;12.952;2023-05-16T02:59:14;26.40;;;12.98;;
64375;SDS011;50700;55.416;12.952;2023-05-16T03:01:40;25.50;;;12.65;;
64375;SDS011;50700;55.416;12.952;2023-05-16T03:04:06;20.17;;;12.07;;
64375;SDS011;50700;55.416;12.952;2023-05-16T03:06:32;25.23;;;12.25;;
64375;SDS011;50700;55.416;12.952;2023-05-16T03:08:58;29.10;;;12.18;;
64375;SDS011;50700;55.416;12.952;2023-05-16T03:11:25;24.23;;;12.27;;
64375;SDS011;50700;55.416;12.952;2023-05-16T03:13:53;22.85;;;12.35;;
64375;SDS011;50700;55.416;12.952;2023-05-16T03:16:19;24.92;;;12.75;;
64375;SDS011;50700;55.416;12.952;2023-05-16T03:18:46;25.02;;;13.05;;
64375;SDS011;50700;55.416;12.952;2023-05-16T03:21:12;24.95;;;12.57;;
64375;SDS011;50700;55.416;12.952;2023-05-16T03:23:38;24.27;;;13.05;;
64375;SDS011;50700;55.416;12.952;2023-05-16T03:26:04;24.92;;;12.57;;
64375;SDS011;50700;55.416;12.952;2023-05-16T03:28:32;23.83;;;12.30;;
64375;SDS011;50700;55.416;12.952;2023-05-16T03:30:58;22.58;;;13.02;;
64375;SDS011;50700;55.416;12.952;2023-05-16T03:33:24;25.98;;;12.07;;
64375;SDS011;50700;55.416;12.952;2023-05-16T03:35:50;23.17;;;12.35;;
64375;SDS011;50700;55.416;12.952;2023-05-16T03:38:17;25.67;;;13.13;;
64375;SDS011;50700;55.416;12.952;2023-05-16T03:40:43;26.33;;;12.18;;
64375;SDS011;50700;55.416;12.952;2023-05-16T03:43:09;23.92;;;12.05;;
64375;SDS011;50700;55.416;12.952;2023-05-16T03:45:35;21.35;;;11.73;;
64375;SDS011;50700;55.416;12.952;2023-05-16T03:48:01;25.63;;;12.10;;
64375;SDS011;50700;55.416;12.952;2023-05-16T03:50:27;22.95;;;10.70;;
64375;SDS011;50700;55.416;12.952;2023-05-16T03:52:54;21.70;;;11.95;;
64375;SDS011;50700;55.416;12.952;2023-05-16T03:55:20;25.27;;;11.60;;
64375;SDS011;50700;55.416;12.952;2023-05-16T03:57:46;23.85;;;12.15;;
64375;SDS011;50700;55.416;12.952;2023-05-16T04:00:14;21.70;;;12.23;;
64375;SDS011;50700;55.416;12.952;2023-05-16T04:02:41;25.50;;;11.73;;
64375;SDS011;50700;55.416;12.952;2023-05-16T04:05:08;22.63;;;12.25;;
64375;SDS011;50700;55.416;12.952;2023-05-16T04:07:35;20.20;;;11.75;;
64375;SDS011;50700;55.416;12.952;2023-05-16T04:10:02;20.63;;;10.27;;
64375;SDS011;50700;55.416;12.952;2023-05-16T04:12:28;23.77;;;11.32;;
64375;SDS011;50700;55.416;12.952;2023-05-16T04:14:54;22.83;;;11.05;;
64375;SDS011;50700;55.416;12.952;2023-05-16T04:17:20;20.33;;;11.18;;
64375;SDS011;50700;55.416;12.952;2023-05-16T04:19:47;21.33;;;11.15;;
64375;SDS011;50700;55.416;12.952;2023-05-16T04:22:13;24.13;;;12.38;;
64375;SDS011;50700;55.416;12.952;2023-05-16T04:24:39;20.67;;;9.82;;
64375;SDS011;50700;55.416;12.952;2023-05-16T04:27:06;23.38;;;10.80;;
64375;SDS011;50700;55.416;12.952;2023-05-16T04:29:33;20.42;;;9.68;;
64375;SDS011;50700;55.416;12.952;2023-05-16T04:31:59;19.88;;;9.40;;
64375;SDS011;50700;55.416;12.952;2023-05-16T04:34:26;21.52;;;11.05;;
64375;SDS011;50700;55.416;12.952;2023-05-16T04:36:53;23.83;;;10.50;;
64375;SDS011;50700;55.416;12.952;2023-05-16T04:39:19;23.60;;;10.80;;
64375;SDS011;50700;55.416;12.952;2023-05-16T04:41:46;21.27;;;9.73;;
64375;SDS011;50700;55.416;12.952;2023-05-16T04:44:13;19.17;;;10.20;;
64375;SDS011;50700;55.416;12.952;2023-05-16T04:46:39;21.23;;;10.82;;
64375;SDS011;50700;55.416;12.952;2023-05-16T04:49:05;22.75;;;11.48;;
64375;SDS011;50700;55.416;12.952;2023-05-16T04:51:32;23.67;;;11.25;;
64375;SDS011;50700;55.416;12.952;2023-05-16T04:53:58;24.70;;;11.55;;
64375;SDS011;50700;55.416;12.952;2023-05-16T04:56:25;28.25;;;11.50;;
64375;SDS011;50700;55.416;12.952;2023-05-16T04:58:51;25.85;;;11.50;;
64375;SDS011;50700;55.416;12.952;2023-05-16T05:01:19;23.40;;;11.43;;
64375;SDS011;50700;55.416;12.952;2023-05-16T05:03:45;24.98;;;10.73;;
64375;SDS011;50700;55.416;12.952;2023-05-16T05:06:11;21.13;;;10.23;;
64375;SDS011;50700;55.416;12.952;2023-05-16T05:08:37;18.55;;;9.35;;
64375;SDS011;50700;55.416;12.952;2023-05-16T05:11:04;19.63;;;8.85;;
64375;SDS011;50700;55.416;12.952;2023-05-16T05:13:30;20.92;;;9.60;;
64375;SDS011;50700;55.416;12.952;2023-05-16T05:15:56;21.17;;;9.77;;
64375;SDS011;50700;55.416;12.952;2023-05-16T05:18:22;20.15;;;9.20;;
64375;SDS011;50700;55.416;12.952;2023-05-16T05:20:49;18.75;;;8.88;;
64375;SDS011;50700;55.416;12.952;2023-05-16T05:23:17;14.70;;;7.53;;
64375;SDS011;50700;55.416;12.952;2023-05-16T05:25:44;18.17;;;8.45;;
64375;SDS011;50700;55.416;12.952;2023-05-16T05:28:10;17.83;;;7.93;;
64375;SDS011;50700;55.416;12.952;2023-05-16T05:30:36;16.75;;;7.82;;
64375;SDS011;50700;55.416;12.952;2023-05-16T05:33:02;13.30;;;7.00;;
64375;SDS011;50700;55.416;12.952;2023-05-16T05:35:28;18.08;;;8.77;;
64375;SDS011;50700;55.416;12.952;2023-05-16T05:37:55;15.05;;;6.47;;
64375;SDS011;50700;55.416;12.952;2023-05-16T05:40:21;22.27;;;7.30;;
64375;SDS011;50700;55.416;12.952;2023-05-16T05:42:47;12.43;;;6.35;;
64375;SDS011;50700;55.416;12.952;2023-05-16T05:45:14;17.15;;;6.47;;
64375;SDS011;50700;55.416;12.952;2023-05-16T05:47:40;26.98;;;7.10;;
64375;SDS011;50700;55.416;12.952;2023-05-16T05:50:06;14.63;;;6.50;;
64375;SDS011;50700;55.416;12.952;2023-05-16T05:52:33;8.98;;;5.10;;
64375;SDS011;50700;55.416;12.952;2023-05-16T05:54:59;13.88;;;7.45;;
64375;SDS011;50700;55.416;12.952;2023-05-16T05:57:25;11.77;;;6.03;;
64375;SDS011;50700;55.416;12.952;2023-05-16T05:59:52;15.20;;;6.75;;
64375;SDS011;50700;55.416;12.952;2023-05-16T06:02:18;12.70;;;5.65;;
64375;SDS011;50700;55.416;12.952;2023-05-16T06:04:44;15.57;;;6.22;;
64375;SDS011;50700;55.416;12.952;2023-05-16T06:07:11;9.30;;;5.18;;
64375;SDS011;50700;55.416;12.952;2023-05-16T06:09:39;12.85;;;5.40;;
64375;SDS011;50700;55.416;12.952;2023-05-16T06:12:06;10.32;;;5.22;;
64375;SDS011;50700;55.416;12.952;2023-05-16T06:14:32;9.50;;;4.38;;
64375;SDS011;50700;55.416;12.952;2023-05-16T06:16:59;8.95;;;4.53;;
64375;SDS011;50700;55.416;12.952;2023-05-16T06:19:25;9.05;;;4.18;;
64375;SDS011;50700;55.416;12.952;2023-05-16T06:21:51;16.35;;;5.15;;
64375;SDS011;50700;55.416;12.952;2023-05-16T06:24:17;8.63;;;3.38;;
64375;SDS011;50700;55.416;12.952;2023-05-16T06:26:43;10.02;;;3.58;;
64375;SDS011;50700;55.416;12.952;2023-05-16T06:29:13;15.35;;;4.90;;
64375;SDS011;50700;55.416;12.952;2023-05-16T06:31:40;9.30;;;4.22;;
64375;SDS011;50700;55.416;12.952;2023-05-16T06:34:06;8.15;;;3.15;;
64375;SDS011;50700;55.416;12.952;2023-05-16T06:36:32;12.15;;;3.60;;
64375;SDS011;50700;55.416;12.952;2023-05-16T06:38:58;8.18;;;3.10;;
64375;SDS011;50700;55.416;12.952;2023-05-16T06:41:24;12.07;;;3.85;;
64375;SDS011;50700;55.416;12.952;2023-05-16T06:43:51;11.93;;;3.20;;
64375;SDS011;50700;55.416;12.952;2023-05-16T06:46:17;15.63;;;4.05;;
64375;SDS011;50700;55.416;12.952;2023-05-16T06:48:43;15.02;;;3.85;;
64375;SDS011;50700;55.416;12.952;2023-05-16T06:51:09;12.10;;;3.67;;
64375;SDS011;50700;55.416;12.952;2023-05-16T06:53:36;11.48;;;3.38;;
64375;SDS011;50700;55.416;12.952;2023-05-16T06:56:02;10.85;;;3.55;;
64375;SDS011;50700;55.416;12.952;2023-05-16T06:58:28;11.45;;;3.53;;
64375;SDS011;50700;55.416;12.952;2023-05-16T07:00:54;12.88;;;3.70;;
64375;SDS011;50700;55.416;12.952;2023-05-16T07:03:21;9.35;;;3.38;;
64375;SDS011;50700;55.416;12.952;2023-05-16T07:05:47;14.05;;;3.22;;
64375;SDS011;50700;55.416;12.952;2023-05-16T07:08:15;7.95;;;3.05;;
64375;SDS011;50700;55.416;12.952;2023-05-16T07:10:41;16.73;;;3.92;;
64375;SDS011;50700;55.416;12.952;2023-05-16T07:13:07;15.50;;;3.70;;
64375;SDS011;50700;55.416;12.952;2023-05-16T07:15:34;12.68;;;3.65;;
64375;SDS011;50700;55.416;12.952;2023-05-16T07:18:00;8.40;;;3.38;;
64375;SDS011;50700;55.416;12.952;2023-05-16T07:20:26;10.15;;;3.25;;
64375;SDS011;50700;55.416;12.952;2023-05-16T07:22:52;6.20;;;3.28;;
64375;SDS011;50700;55.416;12.952;2023-05-16T07:25:22;10.43;;;3.10;;
64375;SDS011;50700;55.416;12.952;2023-05-16T07:27:48;6.47;;;3.00;;
64375;SDS011;50700;55.416;12.952;2023-05-16T07:30:14;12.85;;;3.72;;
64375;SDS011;50700;55.416;12.952;2023-05-16T07:32:41;5.88;;;3.15;;
64375;SDS011;50700;55.416;12.952;2023-05-16T07:35:07;9.15;;;3.63;;
64375;SDS011;50700;55.416;12.952;2023-05-16T07:37:34;7.43;;;3.35;;
64375;SDS011;50700;55.416;12.952;2023-05-16T07:40:00;8.25;;;2.83;;
64375;SDS011;50700;55.416;12.952;2023-05-16T07:42:27;8.68;;;3.78;;
64375;SDS011;50700;55.416;12.952;2023-05-16T07:44:53;9.13;;;2.75;;
64375;SDS011;50700;55.416;12.952;2023-05-16T07:47:21;11.40;;;3.25;;
64375;SDS011;50700;55.416;12.952;2023-05-16T07:49:47;9.43;;;3.15;;
64375;SDS011;50700;55.416;12.952;2023-05-16T07:52:13;10.90;;;2.85;;
64375;SDS011;50700;55.416;12.952;2023-05-16T07:54:40;11.60;;;3.50;;
64375;SDS011;50700;55.416;12.952;2023-05-16T07:57:06;9.55;;;3.72;;
64375;SDS011;50700;55.416;12.952;2023-05-16T07:59:32;10.18;;;4.07;;
64375;SDS011;50700;55.416;12.952;2023-05-16T08:01:58;6.68;;;3.20;;
64375;SDS011;50700;55.416;12.952;2023-05-16T08:04:25;6.97;;;2.92;;
64375;SDS011;50700;55.416;12.952;2023-05-16T08:06:51;10.68;;;3.42;;
64375;SDS011;50700;55.416;12.952;2023-05-16T08:09:17;9.45;;;3.10;;
64375;SDS011;50700;55.416;12.952;2023-05-16T08:11:43;11.20;;;3.40;;
64375;SDS011;50700;55.416;12.952;2023-05-16T08:14:10;8.40;;;2.88;;
64375;SDS011;50700;55.416;12.952;2023-05-16T08:16:36;7.65;;;3.05;;
64375;SDS011;50700;55.416;12.952;2023-05-16T08:19:03;12.07;;;3.35;;
64375;SDS011;50700;55.416;12.952;2023-05-16T08:21:29;9.38;;;3.45;;
64375;SDS011;50700;55.416;12.952;2023-05-16T08:23:56;15.65;;;3.40;;
64375;SDS011;50700;55.416;12.952;2023-05-16T08:26:22;8.50;;;3.13;;
64375;SDS011;50700;55.416;12.952;2023-05-16T08:28:49;5.00;;;2.60;;
64375;SDS011;50700;55.416;12.952;2023-05-16T08:31:15;9.32;;;2.72;;
64375;SDS011;50700;55.416;12.952;2023-05-16T08:33:41;6.82;;;3.00;;
64375;SDS011;50700;55.416;12.952;2023-05-16T08:36:10;8.60;;;3.95;;
64375;SDS011;50700;55.416;12.952;2023-05-16T08:38:36;8.30;;;2.88;;
64375;SDS011;50700;55.416;12.952;2023-05-16T08:41:03;9.70;;;3.05;;
64375;SDS011;50700;55.416;12.952;2023-05-16T08:43:29;7.63;;;3.28;;
64375;SDS011;50700;55.416;12.952;2023-05-16T08:45:55;6.65;;;3.10;;
64375;SDS011;50700;55.416;12.952;2023-05-16T08:48:22;12.88;;;3.47;;
64375;SDS011;50700;55.416;12.952;2023-05-16T08:50:48;15.73;;;3.42;;
64375;SDS011;50700;55.416;12.952;2023-05-16T08:53:16;7.95;;;2.55;;
64375;SDS011;50700;55.416;12.952;2023-05-16T08:55:46;9.40;;;3.03;;
64375;SDS011;50700;55.416;12.952;2023-05-16T08:58:12;14.18;;;3.55;;
64375;SDS011;50700;55.416;12.952;2023-05-16T09:00:39;9.98;;;3.00;;
64375;SDS011;50700;55.416;12.952;2023-05-16T09:03:05;5.60;;;2.80;;
64375;SDS011;50700;55.416;12.952;2023-05-16T09:05:31;7.30;;;3.50;;
64375;SDS011;50700;55.416;12.952;2023-05-16T09:07:57;7.22;;;2.60;;
64375;SDS011;50700;55.416;12.952;2023-05-16T09:10:24;7.80;;;2.65;;
64375;SDS011;50700;55.416;12.952;2023-05-16T09:12:50;12.75;;;3.75;;
64375;SDS011;50700;55.416;12.952;2023-05-16T09:15:17;11.60;;;2.90;;
64375;SDS011;50700;55.416;12.952;2023-05-16T09:17:43;9.57;;;3.30;;
64375;SDS011;50700;55.416;12.952;2023-05-16T09:20:11;11.45;;;3.60;;
64375;SDS011;50700;55.416;12.952;2023-05-16T09:22:38;8.05;;;3.42;;
64375;SDS011;50700;55.416;12.952;2023-05-16T09:25:06;9.15;;;3.22;;
64375;SDS011;50700;55.416;12.952;2023-05-16T09:27:32;7.97;;;2.58;;
64375;SDS011;50700;55.416;12.952;2023-05-16T09:29:58;9.02;;;2.67;;
64375;SDS011;50700;55.416;12.952;2023-05-16T09:32:25;9.35;;;2.58;;
64375;SDS011;50700;55.416;12.952;2023-05-16T09:34:51;10.00;;;2.60;;
64375;SDS011;50700;55.416;12.952;2023-05-16T09:37:18;10.73;;;2.35;;
64375;SDS011;50700;55.416;12.952;2023-05-16T09:39:48;8.25;;;2.85;;
64375;SDS011;50700;55.416;12.952;2023-05-16T09:42:16;6.93;;;3.53;;
64375;SDS011;50700;55.416;12.952;2023-05-16T09:44:49;5.50;;;2.17;;
64375;SDS011;50700;55.416;12.952;2023-05-16T09:47:16;8.88;;;2.30;;
64375;SDS011;50700;55.416;12.952;2023-05-16T09:49:43;9.65;;;2.65;;
64375;SDS011;50700;55.416;12.952;2023-05-16T09:52:10;9.93;;;2.88;;
64375;SDS011;50700;55.416;12.952;2023-05-16T09:54:36;7.43;;;2.50;;
64375;SDS011;50700;55.416;12.952;2023-05-16T09:57:03;9.70;;;2.78;;
64375;SDS011;50700;55.416;12.952;2023-05-16T09:59:36;8.93;;;2.83;;
64375;SDS011;50700;55.416;12.952;2023-05-16T10:02:03;5.65;;;2.42;;
64375;SDS011;50700;55.416;12.952;2023-05-16T10:04:30;12.48;;;3.38;;
64375;SDS011;50700;55.416;12.952;2023-05-16T10:06:56;10.02;;;2.65;;
64375;SDS011;50700;55.416;12.952;2023-05-16T10:09:27;12.38;;;3.15;;
64375;SDS011;50700;55.416;12.952;2023-05-16T10:11:53;5.53;;;2.45;;
64375;SDS011;50700;55.416;12.952;2023-05-16T10:14:20;5.57;;;2.38;;
64375;SDS011;50700;55.416;12.952;2023-05-16T10:16:47;9.43;;;2.97;;
64375;SDS011;50700;55.416;12.952;2023-05-16T10:19:16;9.85;;;3.08;;
64375;SDS011;50700;55.416;12.952;2023-05-16T10:21:45;4.35;;;2.35;;
64375;SDS011;50700;55.416;12.952;2023-05-16T10:24:13;14.45;;;3.42;;
64375;SDS011;50700;55.416;12.952;2023-05-16T10:26:43;7.07;;;2.35;;
64375;SDS011;50700;55.416;12.952;2023-05-16T10:29:09;8.68;;;2.78;;
64375;SDS011;50700;55.416;12.952;2023-05-16T10:31:36;8.60;;;2.58;;
64375;SDS011;50700;55.416;12.952;2023-05-16T10:34:02;6.90;;;2.67;;
64375;SDS011;50700;55.416;12.952;2023-05-16T10:36:28;10.20;;;2.67;;
64375;SDS011;50700;55.416;12.952;2023-05-16T10:38:55;10.77;;;2.83;;
64375;SDS011;50700;55.416;12.952;2023-05-16T10:41:22;6.72;;;2.88;;
64375;SDS011;50700;55.416;12.952;2023-05-16T10:43:55;8.77;;;2.90;;
64375;SDS011;50700;55.416;12.952;2023-05-16T10:46:22;8.77;;;2.70;;
64375;SDS011;50700;55.416;12.952;2023-05-16T10:48:49;7.82;;;2.55;;
64375;SDS011;50700;55.416;12.952;2023-05-16T10:53:51;6.30;;;2.25;;
64375;SDS011;50700;55.416;12.952;2023-05-16T10:56:24;9.90;;;2.85;;
64375;SDS011;50700;55.416;12.952;2023-05-16T10:58:52;15.20;;;4.00;;
64375;SDS011;50700;55.416;12.952;2023-05-16T11:14:18;9.20;;;3.13;;
64375;SDS011;50700;55.416;12.952;2023-05-16T11:16:50;10.98;;;3.28;;
64375;SDS011;50700;55.416;12.952;2023-05-16T11:19:32;10.68;;;3.30;;
64375;SDS011;50700;55.416;12.952;2023-05-16T11:27:23;7.50;;;2.58;;
64375;SDS011;50700;55.416;12.952;2023-05-16T11:29:50;9.57;;;2.80;;
64375;SDS011;50700;55.416;12.952;2023-05-16T11:32:21;6.95;;;2.60;;
64375;SDS011;50700;55.416;12.952;2023-05-16T11:34:47;6.55;;;2.35;;
64375;SDS011;50700;55.416;12.952;2023-05-16T11:37:14;16.08;;;3.70;;
64375;SDS011;50700;55.416;12.952;2023-05-16T11:39:41;9.98;;;3.00;;
64375;SDS011;50700;55.416;12.952;2023-05-16T11:42:08;5.68;;;2.15;;
64375;SDS011;50700;55.416;12.952;2023-05-16T11:44:34;7.60;;;2.45;;
64375;SDS011;50700;55.416;12.952;2023-05-16T11:47:01;11.00;;;3.05;;
64375;SDS011;50700;55.416;12.952;2023-05-16T11:49:28;10.48;;;2.67;;
64375;SDS011;50700;55.416;12.952;2023-05-16T11:51:54;7.88;;;2.63;;
64375;SDS011;50700;55.416;12.952;2023-05-16T11:54:21;8.70;;;2.63;;
64375;SDS011;50700;55.416;12.952;2023-05-16T11:56:48;10.05;;;3.30;;
64375;SDS011;50700;55.416;12.952;2023-05-16T11:59:17;7.72;;;2.80;;
64375;SDS011;50700;55.416;12.952;2023-05-16T12:01:45;10.15;;;2.40;;
64375;SDS011;50700;55.416;12.952;2023-05-16T12:04:15;10.00;;;3.42;;
64375;SDS011;50700;55.416;12.952;2023-05-16T12:06:42;9.50;;;2.28;;
64375;SDS011;50700;55.416;12.952;2023-05-16T12:09:12;11.32;;;3.55;;
64375;SDS011;50700;55.416;12.952;2023-05-16T12:11:39;5.55;;;2.20;;
64375;SDS011;50700;55.416;12.952;2023-05-16T12:14:06;9.98;;;3.13;;
64375;SDS011;50700;55.416;12.952;2023-05-16T12:16:33;9.05;;;2.47;;
64375;SDS011;50700;55.416;12.952;2023-05-16T12:19:01;7.18;;;2.70;;
64375;SDS011;50700;55.416;12.952;2023-05-16T12:21:29;9.27;;;2.70;;
64375;SDS011;50700;55.416;12.952;2023-05-16T12:23:55;9.00;;;2.60;;
64375;SDS011;50700;55.416;12.952;2023-05-16T12:26:25;8.23;;;2.15;;
64375;SDS011;50700;55.416;12.952;2023-05-16T12:28:56;7.30;;;2.03;;
64375;SDS011;50700;55.416;12.952;2023-05-16T12:31:25;7.28;;;2.33;;
64375;SDS011;50700;55.416;12.952;2023-05-16T12:33:54;6.70;;;2.25;;
64375;SDS011;50700;55.416;12.952;2023-05-16T12:36:21;4.07;;;2.10;;
64375;SDS011;50700;55.416;12.952;2023-05-16T12:38:48;9.10;;;2.40;;
64375;SDS011;50700;55.416;12.952;2023-05-16T12:41:19;5.47;;;2.33;;
64375;SDS011;50700;55.416;12.952;2023-05-16T12:43:46;5.80;;;2.30;;
64375;SDS011;50700;55.416;12.952;2023-05-16T12:46:13;10.65;;;2.08;;
64375;SDS011;50700;55.416;12.952;2023-05-16T12:48:39;8.40;;;2.45;;
64375;SDS011;50700;55.416;12.952;2023-05-16T12:51:16;7.57;;;2.60;;
64375;SDS011;50700;55.416;12.952;2023-05-16T12:56:10;7.85;;;2.63;;
64375;SDS011;50700;55.416;12.952;2023-05-16T12:58:36;6.60;;;2.15;;
64375;SDS011;50700;55.416;12.952;2023-05-16T13:01:03;8.20;;;2.58;;
64375;SDS011;50700;55.416;12.952;2023-05-16T13:03:30;9.98;;;3.03;;
64375;SDS011;50700;55.416;12.952;2023-05-16T13:05:56;10.05;;;2.53;;
64375;SDS011;50700;55.416;12.952;2023-05-16T13:08:23;9.18;;;2.72;;
64375;SDS011;50700;55.416;12.952;2023-05-16T13:10:49;8.00;;;2.45;;
64375;SDS011;50700;55.416;12.952;2023-05-16T13:13:16;8.68;;;2.58;;
64375;SDS011;50700;55.416;12.952;2023-05-16T13:15:46;5.30;;;2.40;;
64375;SDS011;50700;55.416;12.952;2023-05-16T13:18:14;8.63;;;2.90;;
64375;SDS011;50700;55.416;12.952;2023-05-16T13:20:41;9.98;;;2.58;;
64375;SDS011;50700;55.416;12.952;2023-05-16T13:23:07;6.50;;;2.08;;
64375;SDS011;50700;55.416;12.952;2023-05-16T13:25:33;11.48;;;2.65;;
64375;SDS011;50700;55.416;12.952;2023-05-16T13:28:00;9.13;;;2.85;;
64375;SDS011;50700;55.416;12.952;2023-05-16T13:30:26;10.85;;;3.63;;
64375;SDS011;50700;55.416;12.952;2023-05-16T13:32:53;9.95;;;2.60;;
64375;SDS011;50700;55.416;12.952;2023-05-16T13:35:19;9.38;;;2.55;;
64375;SDS011;50700;55.416;12.952;2023-05-16T13:37:45;6.57;;;2.33;;
64375;SDS011;50700;55.416;12.952;2023-05-16T13:40:12;8.82;;;2.72;;
64375;SDS011;50700;55.416;12.952;2023-05-16T13:42:38;8.18;;;2.72;;
64375;SDS011;50700;55.416;12.952;2023-05-16T13:45:05;4.25;;;2.10;;
64375;SDS011;50700;55.416;12.952;2023-05-16T13:47:32;8.60;;;2.50;;
64375;SDS011;50700;55.416;12.952;2023-05-16T13:49:58;9.45;;;2.53;;
64375;SDS011;50700;55.416;12.952;2023-05-16T13:52:28;6.43;;;2.67;;
64375;SDS011;50700;55.416;12.952;2023-05-16T13:54:55;24.08;;;3.55;;
64375;SDS011;50700;55.416;12.952;2023-05-16T13:57:21;5.57;;;2.40;;
64375;SDS011;50700;55.416;12.952;2023-05-16T13:59:47;3.83;;;2.17;;
64375;SDS011;50700;55.416;12.952;2023-05-16T14:02:14;11.85;;;2.60;;
64375;SDS011;50700;55.416;12.952;2023-05-16T14:04:40;8.35;;;1.95;;
64375;SDS011;50700;55.416;12.952;2023-05-16T14:07:06;8.10;;;2.17;;
64375;SDS011;50700;55.416;12.952;2023-05-16T14:09:32;7.57;;;2.42;;
64375;SDS011;50700;55.416;12.952;2023-05-16T14:11:59;11.05;;;2.65;;
64375;SDS011;50700;55.416;12.952;2023-05-16T14:14:28;7.13;;;1.92;;
64375;SDS011;50700;55.416;12.952;2023-05-16T14:16:54;4.13;;;2.10;;
64375;SDS011;50700;55.416;12.952;2023-05-16T14:19:21;7.20;;;2.08;;
64375;SDS011;50700;55.416;12.952;2023-05-16T14:21:49;17.45;;;2.65;;
64375;SDS011;50700;55.416;12.952;2023-05-16T14:24:15;11.43;;;2.22;;
64375;SDS011;50700;55.416;12.952;2023-05-16T14:26:41;9.45;;;3.17;;
64375;SDS011;50700;55.416;12.952;2023-05-16T14:29:07;8.25;;;2.08;;
64375;SDS011;50700;55.416;12.952;2023-05-16T14:31:34;5.75;;;1.95;;
64375;SDS011;50700;55.416;12.952;2023-05-16T14:34:00;10.60;;;2.40;;
64375;SDS011;50700;55.416;12.952;2023-05-16T14:36:27;9.00;;;2.25;;
64375;SDS011;50700;55.416;12.952;2023-05-16T14:38:53;8.48;;;2.08;;
64375;SDS011;50700;55.416;12.952;2023-05-16T14:41:20;9.48;;;2.30;;
64375;SDS011;50700;55.416;12.952;2023-05-16T14:43:46;6.88;;;2.13;;
64375;SDS011;50700;55.416;12.952;2023-05-16T14:46:13;5.63;;;2.40;;
64375;SDS011;50700;55.416;12.952;2023-05-16T14:48:39;5.57;;;2.13;;
64375;SDS011;50700;55.416;12.952;2023-05-16T14:51:05;8.52;;;2.28;;
64375;SDS011;50700;55.416;12.952;2023-05-16T14:53:32;5.80;;;1.92;;
64375;SDS011;50700;55.416;12.952;2023-05-16T14:55:58;9.52;;;2.47;;
64375;SDS011;50700;55.416;12.952;2023-05-16T14:58:26;9.00;;;2.25;;